createdAt,value
2018-11-21T00:00:22.657Z,0.61
2018-11-21T00:01:30.715Z,0.62
2018-11-21T00:02:38.771Z,0.62
2018-11-21T00:03:46.824Z,0.60
2018-11-21T00:04:54.869Z,0.61
2018-11-21T00:06:02.941Z,0.58
2018-11-21T00:07:11.012Z,0.53
2018-11-21T00:08:19.091Z,0.53
2018-11-21T00:09:27.091Z,0.58
2018-11-21T00:10:35.180Z,0.46
2018-11-21T00:11:43.218Z,0.55
2018-11-21T00:12:51.308Z,0.58
2018-11-21T00:13:59.331Z,0.50
2018-11-21T00:15:07.390Z,0.41
2018-11-21T00:16:15.446Z,0.51
2018-11-21T00:17:23.518Z,0.47
2018-11-21T00:18:31.555Z,0.47
2018-11-21T00:19:39.593Z,0.44
2018-11-21T00:20:47.680Z,0.46
2018-11-21T00:21:55.732Z,0.44
2018-11-21T00:23:03.804Z,0.39
2018-11-21T00:24:11.835Z,0.39
2018-11-21T00:25:19.892Z,0.41
2018-11-21T00:26:27.948Z,0.39
2018-11-21T00:27:35.994Z,0.38
2018-11-21T00:28:44.095Z,0.41
2018-11-21T00:29:52.119Z,0.39
2018-11-21T00:31:00.187Z,0.39
2018-11-21T00:32:08.262Z,0.32
2018-11-21T00:33:16.288Z,0.35
2018-11-21T00:34:24.347Z,0.35
2018-11-21T00:35:32.379Z,0.35
2018-11-21T00:36:40.493Z,0.41
2018-11-21T00:37:48.517Z,0.44
2018-11-21T00:38:56.564Z,0.44
2018-11-21T00:40:04.634Z,0.41
2018-11-21T00:41:12.689Z,0.38
2018-11-21T00:42:20.740Z,0.41
2018-11-21T00:43:28.800Z,0.51
2018-11-21T00:44:36.872Z,0.41
2018-11-21T00:45:44.912Z,0.44
2018-11-21T00:46:52.962Z,0.42
2018-11-21T00:48:01.040Z,0.50
2018-11-21T00:49:09.090Z,0.51
2018-11-21T00:50:17.146Z,0.51
2018-11-21T00:51:25.192Z,0.44
2018-11-21T00:52:33.244Z,0.42
2018-11-21T00:53:41.302Z,0.39
2018-11-21T00:54:49.387Z,0.41
2018-11-21T00:55:57.432Z,0.47
2018-11-21T00:57:05.468Z,0.42
2018-11-21T00:58:13.503Z,0.42
2018-11-21T00:59:21.597Z,0.49
2018-11-21T01:00:29.651Z,0.53
2018-11-21T01:01:37.705Z,0.60
2018-11-21T01:02:45.746Z,0.55
2018-11-21T01:03:53.817Z,0.47
2018-11-21T01:05:01.860Z,0.57
2018-11-21T01:06:09.936Z,0.58
2018-11-21T01:07:17.987Z,0.62
2018-11-21T01:08:26.040Z,0.55
2018-11-21T01:09:34.119Z,0.44
2018-11-21T01:10:42.138Z,0.50
2018-11-21T01:11:50.216Z,0.50
2018-11-21T01:12:58.259Z,0.51
2018-11-21T01:14:06.304Z,0.47
2018-11-21T01:15:14.369Z,0.41
2018-11-21T01:16:22.437Z,0.41
2018-11-21T01:17:30.474Z,0.49
2018-11-21T01:18:38.545Z,0.49
2018-11-21T01:19:46.589Z,0.42
2018-11-21T01:20:54.645Z,0.51
2018-11-21T01:22:02.726Z,0.44
2018-11-21T01:23:10.761Z,0.47
2018-11-21T01:24:18.818Z,0.49
2018-11-21T01:25:26.862Z,0.44
2018-11-21T01:26:34.901Z,0.42
2018-11-21T01:27:42.980Z,0.38
2018-11-21T01:28:51.042Z,0.38
2018-11-21T01:29:59.091Z,0.31
2018-11-21T01:31:07.147Z,0.41
2018-11-21T01:32:15.190Z,0.23
2018-11-21T01:33:23.276Z,0.36
2018-11-21T01:34:31.329Z,0.26
2018-11-21T01:35:39.365Z,0.24
2018-11-21T01:36:47.444Z,0.28
2018-11-21T01:37:55.494Z,0.28
2018-11-21T01:39:03.531Z,0.20
2018-11-21T01:40:11.605Z,0.17
2018-11-21T01:41:19.673Z,0.21
2018-11-21T01:42:27.723Z,0.20
2018-11-21T01:43:35.787Z,0.13
2018-11-21T01:44:43.804Z,0.20
2018-11-21T01:45:51.901Z,0.10
2018-11-21T01:46:59.962Z,0.13
2018-11-21T01:48:08.014Z,0.15
2018-11-21T01:49:16.056Z,0.11
2018-11-21T01:50:24.181Z,-0.01
2018-11-21T01:51:32.172Z,-0.03
2018-11-21T01:52:40.223Z,-0.01
2018-11-21T01:53:48.306Z,-0.03
2018-11-21T01:54:56.318Z,-0.08
2018-11-21T01:56:04.404Z,-0.11
2018-11-21T01:57:12.445Z,-0.07
2018-11-21T01:58:20.500Z,-0.10
2018-11-21T01:59:28.562Z,-0.10
2018-11-21T02:00:36.596Z,-0.14
2018-11-21T02:01:44.670Z,-0.11
2018-11-21T02:02:52.737Z,-0.23
2018-11-21T02:04:00.796Z,-0.16
2018-11-21T02:05:08.890Z,-0.22
2018-11-21T02:06:16.898Z,-0.22
2018-11-21T02:07:24.937Z,-0.18
2018-11-21T02:08:32.998Z,-0.16
2018-11-21T02:09:41.066Z,-0.18
2018-11-21T02:10:49.125Z,-0.29
2018-11-21T02:11:57.179Z,-0.28
2018-11-21T02:13:05.238Z,-0.31
2018-11-21T02:14:13.292Z,-0.34
2018-11-21T02:15:21.346Z,-0.29
2018-11-21T02:16:29.393Z,-0.28
2018-11-21T02:17:37.447Z,-0.34
2018-11-21T02:18:45.522Z,-0.33
2018-11-21T02:19:53.545Z,-0.40
2018-11-21T02:21:01.620Z,-0.40
2018-11-21T02:22:09.682Z,-0.36
2018-11-21T02:23:17.738Z,-0.46
2018-11-21T02:24:25.783Z,-0.31
2018-11-21T02:25:33.847Z,-0.36
2018-11-21T02:26:41.908Z,-0.44
2018-11-21T02:27:49.973Z,-0.40
2018-11-21T02:28:58.053Z,-0.44
2018-11-21T02:30:06.085Z,-0.44
2018-11-21T02:31:14.109Z,-0.54
2018-11-21T02:32:22.193Z,-0.49
2018-11-21T02:33:30.232Z,-0.54
2018-11-21T02:34:38.298Z,-0.52
2018-11-21T02:35:46.352Z,-0.43
2018-11-21T02:36:54.414Z,-0.47
2018-11-21T02:38:02.449Z,-0.46
2018-11-21T02:39:10.495Z,-0.55
2018-11-21T02:40:18.574Z,-0.54
2018-11-21T02:41:26.630Z,-0.51
2018-11-21T02:42:34.675Z,-0.51
2018-11-21T02:43:42.745Z,-0.49
2018-11-21T02:44:50.810Z,-0.51
2018-11-21T02:45:58.839Z,-0.54
2018-11-21T02:47:06.891Z,-0.54
2018-11-21T02:48:14.972Z,-0.52
2018-11-21T02:49:23.023Z,-0.51
2018-11-21T02:50:31.100Z,-0.57
2018-11-21T02:51:39.147Z,-0.57
2018-11-21T02:52:47.195Z,-0.49
2018-11-21T02:53:55.239Z,-0.51
2018-11-21T02:55:03.320Z,-0.47
2018-11-21T02:56:11.391Z,-0.42
2018-11-21T02:57:19.424Z,-0.57
2018-11-21T02:58:27.456Z,-0.54
2018-11-21T02:59:35.523Z,-0.55
2018-11-21T03:00:43.577Z,-0.51
2018-11-21T03:01:51.633Z,-0.43
2018-11-21T03:02:59.694Z,-0.46
2018-11-21T03:04:07.754Z,-0.46
2018-11-21T03:05:15.797Z,-0.54
2018-11-21T03:06:23.855Z,-0.61
2018-11-21T03:07:31.944Z,-0.64
2018-11-21T03:08:39.981Z,-0.57
2018-11-21T03:09:48.033Z,-0.65
2018-11-21T03:10:56.091Z,-0.69
2018-11-21T03:12:04.116Z,-0.69
2018-11-21T03:13:12.201Z,-0.69
2018-11-21T03:14:20.241Z,-0.65
2018-11-21T03:15:28.314Z,-0.60
2018-11-21T03:16:36.379Z,-0.70
2018-11-21T03:17:44.401Z,-0.65
2018-11-21T03:18:52.476Z,-0.64
2018-11-21T03:20:00.547Z,-0.69
2018-11-21T03:21:08.582Z,-0.64
2018-11-21T03:22:16.629Z,-0.65
2018-11-21T03:23:24.704Z,-0.67
2018-11-21T03:24:32.751Z,-0.69
2018-11-21T03:25:40.802Z,-0.62
2018-11-21T03:26:48.852Z,-0.69
2018-11-21T03:27:56.938Z,-0.57
2018-11-21T03:29:04.964Z,-0.58
2018-11-21T03:30:13.043Z,-0.55
2018-11-21T03:31:21.096Z,-0.54
2018-11-21T03:32:29.127Z,-0.49
2018-11-21T03:33:37.189Z,-0.49
2018-11-21T03:34:45.269Z,-0.54
2018-11-21T03:35:53.324Z,-0.49
2018-11-21T03:37:01.381Z,-0.52
2018-11-21T03:38:09.413Z,-0.39
2018-11-21T03:39:17.482Z,-0.46
2018-11-21T03:40:25.545Z,-0.49
2018-11-21T03:41:33.572Z,-0.47
2018-11-21T03:42:41.647Z,-0.47
2018-11-21T03:43:49.695Z,-0.40
2018-11-21T03:44:57.758Z,-0.44
2018-11-21T03:46:05.843Z,-0.49
2018-11-21T03:47:13.870Z,-0.43
2018-11-21T03:48:21.913Z,-0.54
2018-11-21T03:49:29.995Z,-0.57
2018-11-21T03:50:38.019Z,-0.55
2018-11-21T03:51:46.095Z,-0.44
2018-11-21T03:52:54.146Z,-0.44
2018-11-21T03:54:02.195Z,-0.42
2018-11-21T03:55:10.263Z,-0.39
2018-11-21T03:56:18.320Z,-0.40
2018-11-21T03:57:26.352Z,-0.33
2018-11-21T03:58:34.431Z,-0.26
2018-11-21T03:59:42.466Z,-0.19
2018-11-21T04:00:50.543Z,-0.25
2018-11-21T04:01:58.599Z,-0.26
2018-11-21T04:03:06.643Z,-0.15
2018-11-21T04:04:14.706Z,-0.19
2018-11-21T04:05:22.762Z,-0.15
2018-11-21T04:06:30.809Z,-0.23
2018-11-21T04:07:38.880Z,-0.14
2018-11-21T04:08:46.910Z,-0.23
2018-11-21T04:09:54.993Z,-0.19
2018-11-21T04:11:03.041Z,-0.18
2018-11-21T04:12:11.094Z,-0.26
2018-11-21T04:13:19.167Z,-0.37
2018-11-21T04:14:27.221Z,-0.31
2018-11-21T04:15:35.278Z,-0.43
2018-11-21T04:16:43.300Z,-0.28
2018-11-21T04:17:51.398Z,-0.26
2018-11-21T04:18:59.458Z,-0.23
2018-11-21T04:20:07.507Z,-0.31
2018-11-21T04:21:15.561Z,-0.29
2018-11-21T04:22:23.575Z,-0.29
2018-11-21T04:23:31.679Z,-0.31
2018-11-21T04:24:39.751Z,-0.29
2018-11-21T04:25:47.777Z,-0.22
2018-11-21T04:26:55.818Z,-0.34
2018-11-21T04:28:03.874Z,-0.28
2018-11-21T04:29:11.957Z,-0.31
2018-11-21T04:30:19.998Z,-0.26
2018-11-21T04:31:28.058Z,-0.19
2018-11-21T04:32:36.115Z,-0.18
2018-11-21T04:33:44.147Z,-0.08
2018-11-21T04:34:52.238Z,-0.22
2018-11-21T04:36:00.280Z,-0.18
2018-11-21T04:37:08.339Z,-0.22
2018-11-21T04:38:16.425Z,-0.23
2018-11-21T04:39:24.429Z,-0.22
2018-11-21T04:40:32.502Z,-0.16
2018-11-21T04:41:40.565Z,-0.22
2018-11-21T04:42:48.613Z,-0.14
2018-11-21T04:43:56.654Z,-0.14
2018-11-21T04:45:04.732Z,-0.18
2018-11-21T04:46:12.770Z,-0.23
2018-11-21T04:47:20.840Z,-0.18
2018-11-21T04:48:28.901Z,-0.23
2018-11-21T04:49:36.936Z,-0.23
2018-11-21T04:50:45.003Z,-0.23
2018-11-21T04:51:53.107Z,-0.23
2018-11-21T04:53:01.114Z,-0.19
2018-11-21T04:54:09.226Z,-0.16
2018-11-21T04:55:17.251Z,-0.16
2018-11-21T04:56:25.291Z,-0.23
2018-11-21T04:57:33.374Z,-0.26
2018-11-21T04:58:41.409Z,-0.19
2018-11-21T04:59:49.479Z,-0.15
2018-11-21T05:00:57.528Z,-0.16
2018-11-21T05:02:05.581Z,-0.10
2018-11-21T05:03:13.635Z,-0.22
2018-11-21T05:04:21.712Z,-0.16
2018-11-21T05:05:29.745Z,-0.15
2018-11-21T05:06:37.806Z,-0.15
2018-11-21T05:07:45.846Z,-0.11
2018-11-21T05:08:53.887Z,-0.11
2018-11-21T05:10:01.985Z,-0.11
2018-11-21T05:11:10.033Z,-0.14
2018-11-21T05:12:18.088Z,-0.15
2018-11-21T05:13:26.151Z,-0.11
2018-11-21T05:14:34.229Z,-0.08
2018-11-21T05:15:42.257Z,-0.08
2018-11-21T05:16:50.307Z,-0.11
2018-11-21T05:17:58.385Z,-0.03
2018-11-21T05:19:06.424Z,-0.07
2018-11-21T05:20:14.491Z,-0.15
2018-11-21T05:21:22.594Z,-0.14
2018-11-21T05:22:30.608Z,-0.04
2018-11-21T05:23:38.664Z,0.03
2018-11-21T05:24:46.717Z,0.02
2018-11-21T05:25:54.780Z,0.02
2018-11-21T05:27:02.830Z,0.11
2018-11-21T05:28:10.884Z,0.04
2018-11-21T05:29:18.936Z,0.00
2018-11-21T05:30:26.988Z,0.00
2018-11-21T05:31:35.052Z,0.00
2018-11-21T05:32:43.113Z,-0.03
2018-11-21T05:33:51.181Z,0.04
2018-11-21T05:34:59.691Z,0.04
2018-11-21T05:36:07.282Z,0.02
2018-11-21T05:37:15.323Z,0.00
2018-11-21T05:38:23.410Z,0.03
2018-11-21T05:39:31.444Z,0.02
2018-11-21T05:40:39.518Z,0.00
2018-11-21T05:41:47.614Z,0.08
2018-11-21T05:42:55.621Z,0.07
2018-11-21T05:44:03.655Z,0.13
2018-11-21T05:45:11.850Z,0.04
2018-11-21T05:46:19.785Z,0.13
2018-11-21T05:47:27.816Z,0.15
2018-11-21T05:48:35.914Z,0.14
2018-11-21T05:49:43.963Z,0.08
2018-11-21T05:50:52.014Z,0.10
2018-11-21T05:52:00.063Z,0.04
2018-11-21T05:53:08.102Z,0.04
2018-11-21T05:54:16.534Z,0.07
2018-11-21T05:55:24.253Z,-0.04
2018-11-21T05:56:32.771Z,-0.08
2018-11-21T05:57:40.348Z,-0.04
2018-11-21T05:58:48.401Z,-0.08
2018-11-21T05:59:56.500Z,-0.11
2018-11-21T06:01:04.513Z,-0.03
2018-11-21T06:02:12.563Z,-0.15
2018-11-21T06:03:20.633Z,-0.07
2018-11-21T06:04:28.675Z,-0.08
2018-11-21T06:05:36.743Z,-0.05
2018-11-21T06:06:44.801Z,-0.14
2018-11-21T06:07:52.848Z,-0.04
2018-11-21T06:09:00.916Z,-0.03
2018-11-21T06:10:08.992Z,-0.14
2018-11-21T06:11:17.049Z,0.02
2018-11-21T06:12:25.081Z,0.04
2018-11-21T06:13:33.144Z,-0.08
2018-11-21T06:14:41.195Z,-0.04
2018-11-21T06:15:49.229Z,-0.14
2018-11-21T06:16:57.317Z,-0.01
2018-11-21T06:18:05.360Z,0.03
2018-11-21T06:19:13.417Z,-0.04
2018-11-21T06:20:22.040Z,-0.01
2018-11-21T06:21:29.550Z,0.04
2018-11-21T06:22:37.592Z,0.07
2018-11-21T06:23:45.640Z,0.03
2018-11-21T06:24:53.713Z,0.07
2018-11-21T06:26:01.752Z,-0.01
2018-11-21T06:27:09.803Z,0.04
2018-11-21T06:28:17.854Z,0.03
2018-11-21T06:29:25.924Z,-0.16
2018-11-21T06:30:34.002Z,-0.22
2018-11-21T06:31:42.045Z,-0.08
2018-11-21T06:32:50.100Z,-0.10
2018-11-21T06:33:58.146Z,-0.11
2018-11-21T06:35:06.207Z,-0.04
2018-11-21T06:36:14.242Z,0.00
2018-11-21T06:37:22.326Z,-0.14
2018-11-21T06:38:30.376Z,-0.10
2018-11-21T06:39:38.443Z,-0.10
2018-11-21T06:40:46.499Z,-0.04
2018-11-21T06:41:54.558Z,-0.05
2018-11-21T06:43:02.589Z,-0.11
2018-11-21T06:44:10.644Z,-0.15
2018-11-21T06:45:18.711Z,-0.08
2018-11-21T06:46:26.785Z,-0.01
2018-11-21T06:47:34.832Z,-0.08
2018-11-21T06:48:42.908Z,-0.11
2018-11-21T06:49:50.924Z,-0.10
2018-11-21T06:50:58.995Z,-0.14
2018-11-21T06:52:07.051Z,-0.08
2018-11-21T06:53:15.119Z,-0.07
2018-11-21T06:54:23.165Z,-0.11
2018-11-21T06:55:31.236Z,-0.05
2018-11-21T06:56:39.293Z,-0.05
2018-11-21T06:57:47.355Z,-0.11
2018-11-21T06:58:55.391Z,-0.05
2018-11-21T07:00:03.443Z,-0.22
2018-11-21T07:01:11.504Z,-0.16
2018-11-21T07:02:19.560Z,-0.16
2018-11-21T07:03:27.613Z,-0.11
2018-11-21T07:04:35.665Z,-0.26
2018-11-21T07:05:43.730Z,-0.22
2018-11-21T07:06:51.778Z,-0.21
2018-11-21T07:07:59.857Z,-0.15
2018-11-21T07:09:07.909Z,-0.16
2018-11-21T07:10:15.967Z,-0.26
2018-11-21T07:11:23.989Z,-0.07
2018-11-21T07:12:32.077Z,-0.07
2018-11-21T07:13:40.130Z,-0.01
2018-11-21T07:14:48.221Z,-0.14
2018-11-21T07:15:56.217Z,-0.16
2018-11-21T07:17:04.305Z,-0.26
2018-11-21T07:18:12.353Z,-0.29
2018-11-21T07:19:20.411Z,-0.34
2018-11-21T07:20:28.458Z,-0.23
2018-11-21T07:21:36.543Z,-0.21
2018-11-21T07:22:44.594Z,-0.19
2018-11-21T07:23:52.656Z,-0.07
2018-11-21T07:25:00.704Z,-0.16
2018-11-21T07:26:08.743Z,-0.25
2018-11-21T07:27:16.848Z,-0.18
2018-11-21T07:28:24.874Z,-0.04
2018-11-21T07:29:34.580Z,-0.15
2018-11-21T07:30:40.990Z,0.00
2018-11-21T07:31:49.043Z,-0.01
2018-11-21T07:32:57.112Z,0.14
2018-11-21T07:34:05.149Z,0.15
2018-11-21T07:35:17.690Z,0.23
2018-11-21T07:36:21.277Z,0.17
2018-11-21T07:37:29.323Z,0.08
2018-11-21T07:38:37.385Z,0.15
2018-11-21T07:39:45.437Z,0.07
2018-11-21T07:40:53.521Z,0.11
2018-11-21T07:42:01.558Z,0.07
2018-11-21T07:43:09.604Z,-0.05
2018-11-21T07:44:17.687Z,0.02
2018-11-21T07:45:25.726Z,0.07
2018-11-21T07:46:33.802Z,-0.03
2018-11-21T07:47:41.860Z,0.15
2018-11-21T07:48:49.900Z,0.07
2018-11-21T07:49:57.942Z,0.18
2018-11-21T07:51:06.022Z,0.24
2018-11-21T07:52:14.084Z,0.26
2018-11-21T07:53:22.131Z,0.23
2018-11-21T07:54:30.195Z,0.17
2018-11-21T07:55:38.250Z,0.10
2018-11-21T07:56:46.294Z,0.21
2018-11-21T07:57:54.352Z,0.24
2018-11-21T07:59:02.415Z,0.20
2018-11-21T08:00:10.465Z,0.29
2018-11-21T08:01:18.500Z,0.26
2018-11-21T08:02:26.595Z,0.29
2018-11-21T08:03:34.647Z,0.29
2018-11-21T08:04:42.717Z,0.41
2018-11-21T08:05:50.745Z,0.23
2018-11-21T08:06:58.817Z,0.26
2018-11-21T08:08:06.878Z,0.36
2018-11-21T08:09:14.945Z,0.26
2018-11-21T08:10:22.986Z,0.21
2018-11-21T08:11:31.059Z,0.28
2018-11-21T08:12:39.099Z,0.28
2018-11-21T08:13:47.158Z,0.26
2018-11-21T08:14:55.224Z,0.17
2018-11-21T08:16:03.263Z,0.17
2018-11-21T08:17:11.343Z,0.03
2018-11-21T08:18:19.399Z,0.17
2018-11-21T08:19:27.457Z,0.07
2018-11-21T08:20:35.508Z,0.17
2018-11-21T08:21:43.546Z,0.35
2018-11-21T08:22:51.623Z,0.36
2018-11-21T08:23:59.672Z,0.49
2018-11-21T08:25:07.736Z,0.47
2018-11-21T08:26:15.794Z,0.44
2018-11-21T08:27:23.825Z,0.44
2018-11-21T08:28:31.929Z,0.42
2018-11-21T08:29:39.952Z,0.38
2018-11-21T08:30:48.022Z,0.26
2018-11-21T08:31:56.083Z,0.17
2018-11-21T08:33:04.151Z,0.28
2018-11-21T08:34:12.205Z,0.11
2018-11-21T08:35:20.244Z,0.07
2018-11-21T08:36:28.322Z,0.10
2018-11-21T08:37:36.380Z,0.00
2018-11-21T08:38:44.430Z,0.04
2018-11-21T08:39:52.488Z,0.10
2018-11-21T08:41:00.566Z,0.13
2018-11-21T08:42:08.592Z,0.21
2018-11-21T08:43:16.654Z,0.11
2018-11-21T08:44:24.714Z,0.11
2018-11-21T08:45:32.767Z,0.11
2018-11-21T08:46:40.802Z,0.07
2018-11-21T08:47:48.903Z,0.11
2018-11-21T08:48:56.949Z,0.13
2018-11-21T08:50:05.010Z,-0.05
2018-11-21T08:51:13.050Z,0.03
2018-11-21T08:52:21.130Z,0.15
2018-11-21T08:53:29.183Z,0.08
2018-11-21T08:54:37.238Z,0.08
2018-11-21T08:55:45.286Z,0.13
2018-11-21T08:56:53.361Z,0.14
2018-11-21T08:58:01.405Z,0.17
2018-11-21T08:59:09.463Z,0.02
2018-11-21T09:00:17.510Z,-0.07
2018-11-21T09:01:25.561Z,0.07
2018-11-21T09:02:33.656Z,0.13
2018-11-21T09:03:41.695Z,0.17
2018-11-21T09:04:49.778Z,0.08
2018-11-21T09:05:57.801Z,0.08
2018-11-21T09:07:05.884Z,0.23
2018-11-21T09:08:13.906Z,0.24
2018-11-21T09:09:21.977Z,0.31
2018-11-21T09:11:38.106Z,0.46
2018-11-21T09:12:46.151Z,0.53
2018-11-21T09:13:54.217Z,0.57
2018-11-21T09:15:02.272Z,0.62
2018-11-21T09:16:10.331Z,0.66
2018-11-21T09:17:18.396Z,0.70
2018-11-21T09:18:26.440Z,0.70
2018-11-21T09:19:34.528Z,0.83
2018-11-21T09:20:42.558Z,0.88
2018-11-21T09:21:50.634Z,0.73
2018-11-21T09:22:58.665Z,0.61
2018-11-21T09:24:06.725Z,0.50
2018-11-21T09:25:14.770Z,0.47
2018-11-21T09:26:22.851Z,0.60
2018-11-21T09:27:30.910Z,0.68
2018-11-21T09:28:38.963Z,0.73
2018-11-21T09:29:47.027Z,0.86
2018-11-21T09:30:55.079Z,0.84
2018-11-21T09:32:03.152Z,0.87
2018-11-21T09:33:11.205Z,0.98
2018-11-21T09:34:19.234Z,1.09
2018-11-21T09:35:27.338Z,1.02
2018-11-21T09:36:35.375Z,1.06
2018-11-21T09:37:43.422Z,1.09
2018-11-21T09:38:51.493Z,1.08
2018-11-21T09:39:59.533Z,1.12
2018-11-21T09:41:07.620Z,1.11
2018-11-21T09:42:15.648Z,1.14
2018-11-21T09:43:23.705Z,1.12
2018-11-21T09:44:31.775Z,1.12
2018-11-21T09:45:39.852Z,1.04
2018-11-21T09:46:47.909Z,1.00
2018-11-21T09:47:55.956Z,0.86
2018-11-21T09:49:04.004Z,0.88
2018-11-21T09:50:12.060Z,0.76
2018-11-21T09:51:20.114Z,0.86
2018-11-21T09:52:28.282Z,0.93
2018-11-21T09:53:36.247Z,0.93
2018-11-21T09:54:44.356Z,0.93
2018-11-21T09:55:52.358Z,0.98
2018-11-21T09:57:00.420Z,0.93
2018-11-21T09:58:08.473Z,0.91
2018-11-21T09:59:16.553Z,0.90
2018-11-21T10:00:24.605Z,0.98
2018-11-21T10:01:32.641Z,0.96
2018-11-21T10:02:40.719Z,1.08
2018-11-21T10:03:48.763Z,1.14
2018-11-21T10:04:56.844Z,1.14
2018-11-21T10:06:04.893Z,1.09
2018-11-21T10:07:12.933Z,1.12
2018-11-21T10:08:20.997Z,1.15
2018-11-21T10:09:29.043Z,1.30
2018-11-21T10:10:37.106Z,1.26
2018-11-21T10:11:45.162Z,1.30
2018-11-21T10:12:53.233Z,1.22
2018-11-21T10:14:01.281Z,1.24
2018-11-21T10:15:09.365Z,0.94
2018-11-21T10:16:17.392Z,0.78
2018-11-21T10:17:25.484Z,0.72
2018-11-21T10:18:33.500Z,0.84
2018-11-21T10:19:41.588Z,0.83
2018-11-21T10:20:49.628Z,0.97
2018-11-21T10:21:57.696Z,0.94
2018-11-21T10:23:05.744Z,0.91
2018-11-21T10:24:13.833Z,1.08
2018-11-21T10:25:21.856Z,1.06
2018-11-21T10:26:29.939Z,0.96
2018-11-21T10:27:37.999Z,1.14
2018-11-21T10:28:46.059Z,1.12
2018-11-21T10:29:54.099Z,0.91
2018-11-21T10:31:02.163Z,1.02
2018-11-21T10:32:10.221Z,1.08
2018-11-21T10:33:18.291Z,1.06
2018-11-21T10:34:26.319Z,1.02
2018-11-21T10:35:35.972Z,1.09
2018-11-21T10:36:42.453Z,1.09
2018-11-21T10:37:50.507Z,0.97
2018-11-21T10:38:58.568Z,1.00
2018-11-21T10:40:06.619Z,1.00
2018-11-21T10:41:14.694Z,1.14
2018-11-21T10:42:22.744Z,1.15
2018-11-21T10:43:30.804Z,1.12
2018-11-21T10:44:38.867Z,1.09
2018-11-21T10:45:46.905Z,1.09
2018-11-21T10:46:54.968Z,1.20
2018-11-21T10:48:03.020Z,1.09
2018-11-21T10:49:11.101Z,1.12
2018-11-21T10:50:19.149Z,1.08
2018-11-21T10:51:27.212Z,1.06
2018-11-21T10:52:35.278Z,1.05
2018-11-21T10:53:43.312Z,1.05
2018-11-21T10:54:51.394Z,1.04
2018-11-21T10:55:59.454Z,1.08
2018-11-21T10:57:07.502Z,1.20
2018-11-21T10:58:15.571Z,1.24
2018-11-21T10:59:23.613Z,1.20
2018-11-21T11:00:31.666Z,1.36
2018-11-21T11:01:39.728Z,1.16
2018-11-21T11:02:47.784Z,1.11
2018-11-21T11:03:55.839Z,1.11
2018-11-21T11:05:03.912Z,1.23
2018-11-21T11:06:11.962Z,1.14
2018-11-21T11:07:20.035Z,1.14
2018-11-21T11:08:28.079Z,1.24
2018-11-21T11:09:36.161Z,1.26
2018-11-21T11:10:44.218Z,1.18
2018-11-21T11:11:52.277Z,1.20
2018-11-21T11:13:00.307Z,1.14
2018-11-21T11:14:08.408Z,1.11
2018-11-21T11:15:16.437Z,0.98
2018-11-21T11:16:24.496Z,1.05
2018-11-21T11:17:32.547Z,0.98
2018-11-21T11:18:40.616Z,1.09
2018-11-21T11:19:48.663Z,1.14
2018-11-21T11:20:56.739Z,1.11
2018-11-21T11:22:04.788Z,1.18
2018-11-21T11:23:12.857Z,1.20
2018-11-21T11:24:20.900Z,1.20
2018-11-21T11:25:28.955Z,1.14
2018-11-21T11:26:37.009Z,1.14
2018-11-21T11:27:45.092Z,1.11
2018-11-21T11:28:53.148Z,1.22
2018-11-21T11:30:01.220Z,1.09
2018-11-21T11:31:09.263Z,1.20
2018-11-21T11:32:17.314Z,1.22
2018-11-21T11:33:25.363Z,1.14
2018-11-21T11:34:33.424Z,1.15
2018-11-21T11:35:41.500Z,1.09
2018-11-21T11:36:49.548Z,1.12
2018-11-21T11:37:57.610Z,1.11
2018-11-21T11:39:05.644Z,1.29
2018-11-21T11:40:13.711Z,1.37
2018-11-21T11:41:21.782Z,1.26
2018-11-21T11:42:29.842Z,1.22
2018-11-21T11:43:37.884Z,1.33
2018-11-21T11:44:45.952Z,1.40
2018-11-21T11:45:54.022Z,1.36
2018-11-21T11:47:02.083Z,1.47
2018-11-21T11:48:10.125Z,1.54
2018-11-21T11:49:18.190Z,1.52
2018-11-21T11:50:26.235Z,1.44
2018-11-21T11:51:34.306Z,1.50
2018-11-21T11:52:42.353Z,1.44
2018-11-21T11:53:50.424Z,1.41
2018-11-21T11:54:58.464Z,1.41
2018-11-21T11:56:06.551Z,1.40
2018-11-21T11:57:14.595Z,1.26
2018-11-21T11:58:22.658Z,1.16
2018-11-21T11:59:30.725Z,1.26
2018-11-21T12:00:38.744Z,1.16
2018-11-21T12:01:46.866Z,1.06
2018-11-21T12:02:54.864Z,0.98
2018-11-21T12:04:02.948Z,1.08
2018-11-21T12:05:10.997Z,1.15
2018-11-21T12:06:19.094Z,1.14
2018-11-21T12:07:27.115Z,1.04
2018-11-21T12:08:35.187Z,1.09
2018-11-21T12:09:43.243Z,1.08
2018-11-21T12:10:51.298Z,0.96
2018-11-21T12:12:01.646Z,1.09
2018-11-21T12:13:07.424Z,1.09
2018-11-21T12:14:15.498Z,0.90
2018-11-21T12:15:23.507Z,1.02
2018-11-21T12:16:31.620Z,1.06
2018-11-21T12:17:39.673Z,0.91
2018-11-21T12:18:47.717Z,1.06
2018-11-21T12:19:55.771Z,1.18
2018-11-21T12:21:03.820Z,1.12
2018-11-21T12:22:11.901Z,1.09
2018-11-21T12:23:19.961Z,1.23
2018-11-21T12:24:28.003Z,1.32
2018-11-21T12:25:36.065Z,1.36
2018-11-21T12:26:44.118Z,1.34
2018-11-21T12:27:52.200Z,1.29
2018-11-21T12:29:00.229Z,1.33
2018-11-21T12:30:08.314Z,1.36
2018-11-21T12:31:16.362Z,1.44
2018-11-21T12:32:24.400Z,1.48
2018-11-21T12:33:32.458Z,1.50
2018-11-21T12:34:40.533Z,1.59
2018-11-21T12:35:48.589Z,1.50
2018-11-21T12:36:56.645Z,1.52
2018-11-21T12:38:04.691Z,1.65
2018-11-21T12:39:12.759Z,1.54
2018-11-21T12:40:20.821Z,1.54
2018-11-21T12:41:28.882Z,1.48
2018-11-21T12:42:36.957Z,1.40
2018-11-21T12:43:45.010Z,1.34
2018-11-21T12:44:53.059Z,1.23
2018-11-21T12:46:01.120Z,1.15
2018-11-21T12:47:09.179Z,1.26
2018-11-21T12:48:17.234Z,1.32
2018-11-21T12:49:25.300Z,1.51
2018-11-21T12:50:33.386Z,1.50
2018-11-21T12:51:41.395Z,1.48
2018-11-21T12:52:49.496Z,1.36
2018-11-21T12:53:57.512Z,1.33
2018-11-21T12:55:05.621Z,1.41
2018-11-21T12:56:13.624Z,1.54
2018-11-21T12:57:21.739Z,1.66
2018-11-21T12:58:29.761Z,1.80
2018-11-21T12:59:37.842Z,1.86
2018-11-21T13:00:45.888Z,1.98
2018-11-21T13:01:53.953Z,1.79
2018-11-21T13:03:01.998Z,1.83
2018-11-21T13:04:10.042Z,1.79
2018-11-21T13:05:18.093Z,1.79
2018-11-21T13:06:26.164Z,1.79
2018-11-21T13:07:34.240Z,1.60
2018-11-21T13:08:42.307Z,1.54
2018-11-21T13:09:52.915Z,1.62
2018-11-21T13:10:58.413Z,1.51
2018-11-21T13:12:06.459Z,1.51
2018-11-21T13:13:14.542Z,1.68
2018-11-21T13:14:22.629Z,1.63
2018-11-21T13:15:30.653Z,1.62
2018-11-21T13:16:38.708Z,1.68
2018-11-21T13:17:46.793Z,1.62
2018-11-21T13:18:54.837Z,1.62
2018-11-21T13:20:02.893Z,1.63
2018-11-21T13:21:10.941Z,1.62
2018-11-21T13:22:19.002Z,1.62
2018-11-21T13:23:27.057Z,1.68
2018-11-21T13:24:35.106Z,1.65
2018-11-21T13:25:43.157Z,1.63
2018-11-21T13:26:51.228Z,1.60
2018-11-21T13:27:59.303Z,1.52
2018-11-21T13:29:07.345Z,1.65
2018-11-21T13:30:15.403Z,1.60
2018-11-21T13:31:23.455Z,1.51
2018-11-21T13:32:31.548Z,1.52
2018-11-21T13:33:39.594Z,1.50
2018-11-21T13:34:47.677Z,1.52
2018-11-21T13:35:55.686Z,1.59
2018-11-21T13:37:03.731Z,1.62
2018-11-21T13:38:11.822Z,1.30
2018-11-21T13:39:19.895Z,1.20
2018-11-21T13:40:27.957Z,1.23
2018-11-21T13:41:35.995Z,1.26
2018-11-21T13:42:44.040Z,1.32
2018-11-21T13:43:52.124Z,1.22
2018-11-21T13:45:00.175Z,1.18
2018-11-21T13:46:08.211Z,1.18
2018-11-21T13:47:16.283Z,1.04
2018-11-21T13:48:24.353Z,0.84
2018-11-21T13:49:32.404Z,0.75
2018-11-21T13:50:40.469Z,0.86
2018-11-21T13:51:48.507Z,0.90
2018-11-21T13:52:56.594Z,0.93
2018-11-21T13:54:04.622Z,0.93
2018-11-21T13:55:12.703Z,0.90
2018-11-21T13:56:20.739Z,0.94
2018-11-21T13:57:28.891Z,0.98
2018-11-21T13:58:36.865Z,1.11
2018-11-21T13:59:44.948Z,1.04
2018-11-21T14:00:53.003Z,1.15
2018-11-21T14:02:01.033Z,1.23
2018-11-21T14:03:09.101Z,1.18
2018-11-21T14:04:17.146Z,1.24
2018-11-21T14:05:25.234Z,1.33
2018-11-21T14:06:33.279Z,1.33
2018-11-21T14:07:41.338Z,1.41
2018-11-21T14:08:49.402Z,1.47
2018-11-21T14:09:57.471Z,1.50
2018-11-21T14:11:05.518Z,1.47
2018-11-21T14:12:13.549Z,1.50
2018-11-21T14:13:21.623Z,1.51
2018-11-21T14:14:29.707Z,1.52
2018-11-21T14:15:37.751Z,1.45
2018-11-21T14:16:45.815Z,1.48
2018-11-21T14:17:53.867Z,1.47
2018-11-21T14:19:01.940Z,1.42
2018-11-21T14:20:09.978Z,1.44
2018-11-21T14:21:18.056Z,1.37
2018-11-21T14:22:26.085Z,1.37
2018-11-21T14:23:34.141Z,1.30
2018-11-21T14:24:42.199Z,1.32
2018-11-21T14:25:50.295Z,1.22
2018-11-21T14:26:58.335Z,1.24
2018-11-21T14:28:06.366Z,1.32
2018-11-21T14:29:14.450Z,1.27
2018-11-21T14:30:22.496Z,1.32
2018-11-21T14:31:30.555Z,1.29
2018-11-21T14:32:38.607Z,1.26
2018-11-21T14:33:46.662Z,1.24
2018-11-21T14:34:54.739Z,1.23
2018-11-21T14:36:02.774Z,1.09
2018-11-21T14:37:10.847Z,1.11
2018-11-21T14:38:18.911Z,1.11
2018-11-21T14:39:26.958Z,1.06
2018-11-21T14:40:35.003Z,1.09
2018-11-21T14:41:43.077Z,0.98
2018-11-21T14:42:51.148Z,1.05
2018-11-21T14:43:59.194Z,0.97
2018-11-21T14:45:07.251Z,0.88
2018-11-21T14:46:15.326Z,0.91
2018-11-21T14:47:23.356Z,0.88
2018-11-21T14:48:31.583Z,0.73
2018-11-21T14:49:39.505Z,0.60
2018-11-21T14:50:47.515Z,0.68
2018-11-21T14:51:55.617Z,0.61
2018-11-21T14:53:03.645Z,0.72
2018-11-21T14:54:11.710Z,0.73
2018-11-21T14:55:19.778Z,0.84
2018-11-21T14:56:29.320Z,0.83